Terminal Aerodrome Forecast
Issued by NWS Wilmington, OH

Current Version | Previous Version | Graphics & Text | Print | Product List | Glossary On
Versions: 1 2 3 4 5 6 7 8 9 10 11 12 13 14 15 16 17 18 19 20 21 22
000
FTUS41 KILN 251700
TAFILN
TAF
KILN 251740Z 2518/2618 10007KT P6SM -RA SCT015 OVC040
     FM252000 10006KT 5SM -RA OVC015
     FM260000 06008KT 3SM -RA OVC005
     FM260300 02014G22KT 3SM -SN SCT015 OVC022
      TEMPO 2610/2612 P6SM NSW OVC015
     FM261200 35013KT P6SM OVC012
     FM261400 33010KT P6SM OVC010=

USA.gov is the U.S. government's official web portal to all federal, state and local government web resources and services.